Time;durP1;ratioP1;P1;durP2;ratioP2;P2;SDS_P1;SDS_P2;PMS_P1;PMS_P2;Temp;Humidity;BMP_temperature;BMP_pressure;BME280_temperature;BME280_humidity;BME280_pressure;Samples;Min_cycle;Max_cycle;Signal;HPM_P1;HPM_P2
2022/06/29 02:04:02;;;;;;;20.10;8.10;;;;;;;18.75;100.00;94160.00;5012706;23;20155;-93
2022/06/29 02:06:28;;;;;;;25.65;8.35;;;;;;;18.62;100.00;94158.41;4947677;28;20115;-92
2022/06/29 02:08:54;;;;;;;21.88;7.57;;;;;;;18.81;100.00;94157.19;4963601;28;20034;-92
2022/06/29 02:11:19;;;;;;;31.60;7.65;;;;;;;18.73;100.00;94164.13;4963474;28;20027;-92
2022/06/29 02:13:46;;;;;;;23.75;6.95;;;;;;;18.68;100.00;94158.97;4963395;28;20325;-92
2022/06/29 02:16:11;;;;;;;29.10;7.13;;;;;;;18.40;100.00;94162.13;4947542;28;20027;-92
2022/06/29 02:18:37;;;;;;;18.40;6.60;;;;;;;18.78;100.00;94154.06;4963049;28;20042;-92
2022/06/29 02:21:02;;;;;;;18.60;6.00;;;;;;;18.70;100.00;94154.91;4947496;28;20049;-92
2022/06/29 02:23:28;;;;;;;19.20;6.38;;;;;;;18.78;100.00;94151.41;4947438;28;20030;-93
2022/06/29 02:25:54;;;;;;;20.65;5.57;;;;;;;18.77;100.00;94154.41;4947467;28;20101;-93
2022/06/29 02:28:19;;;;;;;16.00;6.20;;;;;;;18.85;100.00;94150.13;4947275;28;20455;-92
2022/06/29 02:36:51;;;;;;;23.00;4.95;;;;;;;19.00;100.00;94159.38;4965385;28;20137;-89
2022/06/29 02:39:16;;;;;;;11.13;4.00;;;;;;;19.02;100.00;94151.88;4963055;28;20121;-89
2022/06/29 02:41:41;;;;;;;16.25;4.70;;;;;;;18.76;100.00;94158.16;4963171;28;20025;-89
2022/06/29 02:44:07;;;;;;;9.68;3.75;;;;;;;18.82;100.00;94156.84;4947003;28;20029;-88
2022/06/29 02:46:33;;;;;;;14.75;4.60;;;;;;;18.76;100.00;94161.56;4962942;28;20123;-88
2022/06/29 02:48:58;;;;;;;14.80;5.60;;;;;;;18.41;100.00;94159.16;4962910;28;20050;-89
2022/06/29 02:51:25;;;;;;;15.05;5.88;;;;;;;18.49;100.00;94163.63;4962804;28;20121;-90
2022/06/29 02:53:50;;;;;;;20.30;5.95;;;;;;;18.61;100.00;94154.97;4946497;28;20480;-90
2022/06/29 02:56:16;;;;;;;19.98;6.60;;;;;;;18.63;100.00;94152.00;4962622;28;20027;-89
2022/06/29 02:58:41;;;;;;;17.67;5.95;;;;;;;18.62;100.00;94153.09;4947123;28;20027;-90
2022/06/29 03:01:07;;;;;;;26.08;6.55;;;;;;;18.59;100.00;94154.53;4946562;28;20431;-89
2022/06/29 03:03:32;;;;;;;22.27;7.65;;;;;;;18.40;100.00;94147.00;4961498;28;20044;-90
2022/06/29 03:05:57;;;;;;;22.58;8.02;;;;;;;18.43;100.00;94150.88;4962591;28;20038;-91
2022/06/29 03:08:23;;;;;;;30.00;8.57;;;;;;;18.47;100.00;94154.44;4962117;28;20023;-92
2022/06/29 03:10:49;;;;;;;24.92;9.43;;;;;;;18.32;100.00;94151.28;4946418;28;20343;-91
2022/06/29 03:13:15;;;;;;;23.60;7.55;;;;;;;18.65;100.00;94157.78;4946106;28;20027;-91
2022/06/29 03:15:40;;;;;;;26.02;9.10;;;;;;;18.41;100.00;94151.22;4946244;28;20034;-90
2022/06/29 03:18:06;;;;;;;28.73;8.05;;;;;;;18.50;100.00;94157.22;4946580;28;20102;-91
2022/06/29 03:20:32;;;;;;;26.92;7.97;;;;;;;18.67;100.00;94150.25;4946317;28;20029;-92
2022/06/29 03:22:57;;;;;;;29.40;9.68;;;;;;;18.46;100.00;94150.25;4946460;28;20125;-90
2022/06/29 03:25:23;;;;;;;23.70;9.02;;;;;;;18.33;100.00;94144.06;4946134;28;20023;-91
2022/06/29 03:27:48;;;;;;;38.83;10.13;;;;;;;18.46;100.00;94145.72;4946084;28;20034;-91
2022/06/29 03:30:14;;;;;;;24.00;8.32;;;;;;;18.41;100.00;94143.25;4961742;28;20077;-91
2022/06/29 03:32:39;;;;;;;25.05;8.38;;;;;;;18.47;100.00;94141.94;4961747;28;20428;-91
2022/06/29 03:35:06;;;;;;;28.90;8.85;;;;;;;18.53;100.00;94134.59;4945953;28;20113;-91
2022/06/29 03:37:32;;;;;;;21.95;8.20;;;;;;;18.50;100.00;94136.00;4946057;28;20178;-91
2022/06/29 03:39:57;;;;;;;27.55;7.55;;;;;;;18.58;100.00;94129.09;4945931;28;20113;-91
2022/06/29 03:42:23;;;;;;;26.13;7.78;;;;;;;18.57;100.00;94127.53;4940358;29;20027;-91
2022/06/29 03:44:48;;;;;;;25.10;7.65;;;;;;;18.59;100.00;94128.00;4926746;29;20023;-91
2022/06/29 03:47:14;;;;;;;23.55;7.05;;;;;;;18.47;100.00;94127.94;4927120;29;20428;-91
2022/06/29 03:49:39;;;;;;;26.38;7.78;;;;;;;18.64;100.00;94124.34;4942630;29;20373;-91
2022/06/29 03:52:06;;;;;;;27.30;7.38;;;;;;;18.47;100.00;94136.66;4942763;29;20023;-92
2022/06/29 03:54:32;;;;;;;19.05;6.30;;;;;;;18.65;100.00;94126.69;4942568;29;20376;-91
2022/06/29 03:56:57;;;;;;;23.67;6.43;;;;;;;18.53;100.00;94133.81;4926907;29;20087;-92
2022/06/29 03:59:23;;;;;;;26.15;7.00;;;;;;;18.48;100.00;94142.75;4942315;29;20027;-92
2022/06/29 04:01:48;;;;;;;20.58;6.28;;;;;;;18.64;100.00;94141.06;4926714;29;20114;-90
2022/06/29 04:04:14;;;;;;;25.52;6.70;;;;;;;18.51;100.00;94132.28;4942569;29;20038;-92
2022/06/29 04:06:40;;;;;;;23.60;7.07;;;;;;;18.53;100.00;94141.78;4942312;29;20031;-92
2022/06/29 04:09:05;;;;;;;20.27;6.07;;;;;;;18.45;100.00;94136.19;4926495;29;20329;-91
2022/06/29 04:11:49;;;;;;;18.00;5.60;;;;;;;18.65;100.00;94133.91;4942376;29;20031;-93
2022/06/29 04:14:28;;;;;;;28.90;5.57;;;;;;;18.67;100.00;94139.66;4959077;28;20451;-90
2022/06/29 04:16:56;;;;;;;21.77;5.03;;;;;;;18.62;100.00;94137.16;4942157;29;20071;-91
2022/06/29 04:19:22;;;;;;;19.65;4.72;;;;;;;18.63;100.00;94139.50;4959018;29;20027;-93
2022/06/29 04:22:05;;;;;;;15.05;5.10;;;;;;;18.53;100.00;94141.78;4942136;29;20075;-94
2022/06/29 04:24:30;;;;;;;22.83;4.90;;;;;;;18.69;100.00;94145.41;4958100;29;20023;-92
2022/06/29 04:26:56;;;;;;;21.73;6.18;;;;;;;18.54;100.00;94148.63;4958983;29;20280;-92
2022/06/29 04:29:21;;;;;;;19.67;5.78;;;;;;;18.75;100.00;94149.41;4941822;29;20053;-92
2022/06/29 04:31:46;;;;;;;22.85;5.05;;;;;;;18.74;100.00;94145.19;4942004;29;20455;-92
2022/06/29 04:34:12;;;;;;;16.73;4.90;;;;;;;18.62;100.00;94142.47;4941821;29;20019;-92
2022/06/29 04:36:37;;;;;;;20.63;5.35;;;;;;;18.47;100.00;94139.31;4941741;29;20031;-93
2022/06/29 04:39:03;;;;;;;14.75;4.60;;;;;;;18.75;100.00;94140.69;4926159;29;20027;-91
2022/06/29 04:41:28;;;;;;;20.25;5.35;;;;;;;18.66;100.00;94132.78;4958861;29;20034;-92
2022/06/29 04:43:54;;;;;;;14.65;4.80;;;;;;;18.79;100.00;94128.31;4958946;29;20027;-92
2022/06/29 04:46:19;;;;;;;15.68;5.13;;;;;;;18.99;100.00;94134.72;4942095;29;20031;-93
2022/06/29 04:48:56;;;;;;;17.60;5.05;;;;;;;18.92;100.00;94129.91;4942378;29;20034;-93
2022/06/29 04:51:22;;;;;;;14.85;4.22;;;;;;;19.02;100.00;94138.63;4927447;29;20031;-91
2022/06/29 04:53:49;;;;;;;18.42;5.03;;;;;;;19.07;100.00;94136.50;4959239;29;20043;-93
2022/06/29 04:56:15;;;;;;;18.38;5.18;;;;;;;19.21;100.00;94138.88;4943042;29;20027;-92
2022/06/29 04:58:42;;;;;;;23.13;5.05;;;;;;;19.03;100.00;94135.63;4942523;29;20035;-91
2022/06/29 05:01:07;;;;;;;23.63;4.45;;;;;;;19.09;100.00;94133.53;4958168;29;20023;-91
2022/06/29 05:03:33;;;;;;;19.75;4.95;;;;;;;19.05;100.00;94127.34;4926333;29;20045;-93
2022/06/29 05:05:59;;;;;;;20.02;5.18;;;;;;;19.02;100.00;94120.03;4927059;29;20069;-91
2022/06/29 05:08:24;;;;;;;14.10;4.07;;;;;;;19.02;100.00;94118.13;4959133;29;20034;-91
2022/06/29 05:10:50;;;;;;;15.63;4.13;;;;;;;19.17;100.00;94126.59;4959180;29;20110;-93
2022/06/29 05:13:15;;;;;;;14.13;3.83;;;;;;;19.35;100.00;94127.19;4941676;29;20360;-94
2022/06/29 05:15:41;;;;;;;16.15;4.15;;;;;;;19.44;100.00;94129.75;4942087;29;20031;-90
2022/06/29 05:18:06;;;;;;;17.48;5.68;;;;;;;19.25;100.00;94139.00;4958406;29;20497;-91
2022/06/29 05:20:32;;;;;;;23.75;5.30;;;;;;;18.84;100.00;94144.03;4941253;29;20433;-92
2022/06/29 05:22:58;;;;;;;24.63;6.18;;;;;;;18.87;100.00;94151.34;4940953;29;20360;-92
2022/06/29 05:25:23;;;;;;;26.45;6.65;;;;;;;19.17;100.00;94150.47;4941189;28;20027;-92
2022/06/29 05:27:49;;;;;;;19.23;6.30;;;;;;;19.55;100.00;94144.16;4944700;29;20030;-91
2022/06/29 05:30:15;;;;;;;22.42;6.78;;;;;;;19.30;100.00;94146.00;4928939;29;20042;-90
2022/06/29 05:32:41;;;;;;;20.48;6.85;;;;;;;19.32;100.00;94151.75;4944462;29;20031;-91
2022/06/29 05:35:07;;;;;;;22.70;7.25;;;;;;;19.49;100.00;94161.41;4944907;29;20125;-90
2022/06/29 05:37:33;;;;;;;20.80;7.63;;;;;;;19.47;100.00;94159.09;4944910;29;20035;-92
2022/06/29 05:39:58;;;;;;;21.67;6.97;;;;;;;19.55;100.00;94149.47;4944932;29;20046;-88
2022/06/29 05:42:24;;;;;;;22.10;6.25;;;;;;;19.72;100.00;94137.84;4961870;29;20027;-89
2022/06/29 05:44:49;;;;;;;18.10;4.43;;;;;;;19.69;100.00;94138.53;4961508;29;20031;-88
2022/06/29 05:47:14;;;;;;;17.40;4.38;;;;;;;20.12;100.00;94147.13;4961881;29;20388;-91
2022/06/29 05:49:40;;;;;;;13.65;4.07;;;;;;;20.36;100.00;94136.78;4961541;29;20058;-88
2022/06/29 05:52:06;;;;;;;14.15;3.35;;;;;;;20.48;100.00;94142.84;4944391;29;20035;-91
2022/06/29 05:54:32;;;;;;;17.27;3.22;;;;;;;20.41;100.00;94144.53;4928754;29;20031;-89
2022/06/29 05:56:57;;;;;;;14.05;3.13;;;;;;;20.48;100.00;94137.53;4944698;29;20031;-90
2022/06/29 05:59:22;;;;;;;15.25;4.22;;;;;;;20.28;100.00;94138.47;4944299;29;20034;-87
2022/06/29 06:01:48;;;;;;;15.52;3.25;;;;;;;20.34;100.00;94137.91;4961696;29;20459;-90
2022/06/29 06:04:13;;;;;;;14.48;3.20;;;;;;;20.23;100.00;94143.97;4960281;29;20087;-92
2022/06/29 06:06:39;;;;;;;12.45;2.97;;;;;;;20.39;100.00;94141.44;4961311;29;20471;-89
2022/06/29 06:09:05;;;;;;;15.40;3.42;;;;;;;20.38;100.00;94146.00;4944579;29;20042;-89
2022/06/29 06:11:30;;;;;;;17.13;3.50;;;;;;;20.54;100.00;94147.97;4944512;29;20034;-91
2022/06/29 06:13:55;;;;;;;28.60;6.00;;;;;;;20.57;100.00;94149.94;4960782;29;20113;-91
2022/06/29 06:16:21;;;;;;;21.65;6.03;;;;;;;21.04;100.00;94154.69;4928285;29;20042;-91
2022/06/29 06:18:56;;;;;;;21.80;5.75;;;;;;;20.93;100.00;94158.19;4945747;29;20038;-92
2022/06/29 06:21:24;;;;;;;27.60;5.82;;;;;;;21.06;100.00;94162.34;4935404;29;20091;-93
2022/06/29 06:23:52;;;;;;;21.05;5.55;;;;;;;21.29;100.00;94161.78;4946165;29;20031;-92
2022/06/29 06:26:27;;;;;;;25.67;6.03;;;;;;;21.10;100.00;94167.78;4947227;29;20087;-93
2022/06/29 06:29:12;;;;;;;;;;;;;;;;;;;;;
2022/06/29 06:31:51;;;;;;;;;;;;;;;;;;;;;
2022/06/29 06:34:21;;;;;;;20.67;4.60;;;;;;;21.42;100.00;94152.63;4946983;29;20027;-94
2022/06/29 06:36:49;;;;;;;20.08;4.72;;;;;;;21.78;100.00;94158.09;4964760;28;20110;-94
2022/06/29 06:39:23;;;;;;;16.20;4.38;;;;;;;21.63;100.00;94159.63;4960848;29;20031;-94
2022/06/29 06:41:49;;;;;;;21.13;4.47;;;;;;;21.38;100.00;94162.44;4961586;29;20033;-93
2022/06/29 06:44:32;;;;;;;19.95;4.22;;;;;;;21.85;100.00;94162.84;4962873;29;20027;-92
2022/06/29 06:46:57;;;;;;;19.83;4.30;;;;;;;21.93;100.00;94169.13;4946243;29;20039;-91
2022/06/29 06:49:31;;;;;;;20.95;5.43;;;;;;;21.86;100.00;94159.84;4962200;29;20037;-93
2022/06/29 06:52:09;;;;;;;;;;;;;;;;;;;;;
2022/06/29 06:54:35;;;;;;;20.52;4.18;;;;;;;22.44;100.00;94171.03;4963242;29;20114;-93
2022/06/29 06:57:06;;;;;;;17.58;4.32;;;;;;;22.42;100.00;94176.75;4961114;29;20058;-93
2022/06/29 06:59:34;;;;;;;14.88;4.20;;;;;;;22.45;100.00;94175.25;4961942;29;20023;-94
2022/06/29 07:02:01;;;;;;;20.98;3.28;;;;;;;21.90;100.00;94181.25;4960570;29;20087;-94
2022/06/29 07:04:26;;;;;;;19.13;3.30;;;;;;;21.92;100.00;94183.56;4929099;29;20035;-94
2022/06/29 07:07:20;;;;;;;18.33;3.25;;;;;;;22.49;100.00;94191.38;4945170;29;20075;-93
2022/06/29 07:09:58;;;;;;;;;;;;;;;;;;;;;
2022/06/29 07:12:23;;;;;;;13.60;3.20;;;;;;;22.40;100.00;94191.53;4961683;29;20026;-93
2022/06/29 07:14:51;;;;;;;10.63;3.70;;;;;;;22.41;100.00;94193.09;4928637;29;20126;-93
2022/06/29 07:17:43;;;;;;;12.45;3.88;;;;;;;22.40;100.00;94191.53;4962957;29;20031;-92
2022/06/29 07:20:17;;;;;;;12.05;2.97;;;;;;;22.70;100.00;94183.84;4945973;29;20035;-92
2022/06/29 07:22:46;;;;;;;22.50;3.90;;;;;;;22.86;100.00;94188.38;4961419;29;20027;-94
2022/06/29 07:25:11;;;;;;;20.52;4.10;;;;;;;22.58;100.00;94197.31;4962700;28;20018;-93
2022/06/29 07:27:44;;;;;;;18.00;4.32;;;;;;;22.45;100.00;94192.06;4963234;28;20030;-92
2022/06/29 07:30:15;;;;;;;12.97;3.90;;;;;;;22.61;100.00;94193.94;4979215;28;20061;-93
2022/06/29 07:32:40;;;;;;;20.65;4.47;;;;;;;22.86;100.00;94197.13;4963193;28;20262;-92
2022/06/29 07:35:06;;;;;;;14.00;3.33;;;;;;;22.89;100.00;94201.00;4962937;28;20030;-93
2022/06/29 07:37:32;;;;;;;17.95;3.55;;;;;;;22.49;100.00;94199.38;4946130;28;20034;-93
2022/06/29 07:39:57;;;;;;;15.20;3.95;;;;;;;22.53;100.00;94200.25;4962794;28;20038;-92
2022/06/29 07:42:23;;;;;;;21.63;4.38;;;;;;;22.43;100.00;94196.97;4946537;28;20039;-94
2022/06/29 07:44:48;;;;;;;12.38;3.58;;;;;;;22.56;100.00;94194.22;4946153;28;20023;-94
2022/06/29 07:47:13;;;;;;;19.08;3.83;;;;;;;22.41;100.00;94201.09;4946349;28;20137;-94
2022/06/29 07:49:39;;;;;;;17.95;4.13;;;;;;;22.76;100.00;94191.56;4945438;28;20383;-94
2022/06/29 07:55:26;;;;;;;16.70;3.85;;;;;;;22.62;100.00;94203.50;4979043;28;20065;-91
2022/06/29 07:57:52;;;;;;;17.05;3.65;;;;;;;23.06;100.00;94197.16;4961969;28;20030;-93
2022/06/29 08:00:18;;;;;;;24.30;4.38;;;;;;;23.62;100.00;94195.19;4945812;28;20034;-93
2022/06/29 08:02:43;;;;;;;18.65;3.75;;;;;;;23.51;100.00;94202.97;4946509;28;20030;-93
2022/06/29 08:05:18;;;;;;;19.55;3.35;;;;;;;23.43;100.00;94204.75;4946302;28;20035;-93
2022/06/29 08:07:45;;;;;;;12.10;3.17;;;;;;;23.50;100.00;94204.13;4963366;28;20031;-95
2022/06/29 08:10:11;;;;;;;13.68;3.47;;;;;;;23.38;100.00;94198.91;4946425;28;20041;-93
2022/06/29 08:12:37;;;;;;;12.18;3.00;;;;;;;22.80;100.00;94197.75;4946683;28;20035;-93
2022/06/29 08:15:03;;;;;;;19.23;3.28;;;;;;;22.86;100.00;94205.16;4962535;28;20026;-93
2022/06/29 08:17:29;;;;;;;12.55;2.95;;;;;;;22.78;100.00;94203.47;4946546;28;20027;-92
2022/06/29 08:19:55;;;;;;;21.15;3.03;;;;;;;22.84;100.00;94196.72;4945732;28;20023;-92
2022/06/29 08:22:23;;;;;;;18.23;3.45;;;;;;;22.74;100.00;94200.72;4961269;28;20030;-91
2022/06/29 08:24:48;;;;;;;17.60;2.53;;;;;;;22.99;100.00;94197.78;4979165;28;20390;-93
2022/06/29 08:27:14;;;;;;;14.05;2.50;;;;;;;23.27;100.00;94202.19;4962305;28;20042;-93
2022/06/29 08:29:39;;;;;;;16.35;3.15;;;;;;;23.20;100.00;94203.91;4946052;28;20038;-93
2022/06/29 08:32:05;;;;;;;15.38;2.50;;;;;;;23.20;100.00;94203.91;4945627;28;20062;-91
2022/06/29 08:34:39;;;;;;;12.35;2.35;;;;;;;23.01;100.00;94195.53;4961065;28;20030;-93
2022/06/29 08:37:05;;;;;;;15.35;2.38;;;;;;;22.77;100.00;94201.13;4962713;28;20026;-94
2022/06/29 08:39:31;;;;;;;13.23;2.65;;;;;;;22.73;100.00;94198.38;4945139;28;20019;-90
2022/06/29 08:42:00;;;;;;;14.90;3.08;;;;;;;23.31;100.00;94202.22;4978415;28;20034;-94
2022/06/29 08:44:26;;;;;;;13.43;2.22;;;;;;;23.66;100.00;94208.59;4945539;28;20022;-94
2022/06/29 08:46:51;;;;;;;11.80;2.40;;;;;;;23.84;100.00;94212.38;4946616;28;20027;-94
2022/06/29 08:49:17;;;;;;;12.82;2.53;;;;;;;23.68;100.00;94204.44;4946513;28;20026;-94
2022/06/29 08:52:36;;;;;;;13.55;2.80;;;;;;;23.93;100.00;94206.78;4948223;28;20458;-93
2022/06/29 08:55:07;;;;;;;8.30;2.28;;;;;;;24.46;100.00;94209.91;4961205;28;20026;-95
2022/06/29 08:57:37;;;;;;;6.45;2.03;;;;;;;24.93;100.00;94205.97;4946820;28;20313;-94
2022/06/29 09:00:04;;;;;;;10.90;2.40;;;;;;;24.85;100.00;94201.69;4978530;28;20023;-93
2022/06/29 09:02:30;;;;;;;13.43;2.80;;;;;;;24.96;100.00;94207.97;4981980;28;20030;-94
2022/06/29 09:04:55;;;;;;;12.07;2.65;;;;;;;24.88;100.00;94209.00;4982650;28;20031;-93
2022/06/29 09:07:21;;;;;;;19.02;2.72;;;;;;;24.06;100.00;94209.31;4983046;28;20113;-94
2022/06/29 09:10:06;;;;;;;9.77;2.65;;;;;;;24.47;100.00;94214.91;4982281;28;20452;-94
2022/06/29 09:12:32;;;;;;;15.38;3.03;;;;;;;23.98;100.00;94217.19;4983287;28;20085;-92
2022/06/29 09:14:58;;;;;;;13.85;2.40;;;;;;;24.61;100.00;94214.34;4982343;28;20035;-93
2022/06/29 09:17:24;;;;;;;10.15;2.28;;;;;;;24.64;100.00;94204.81;4983196;28;20027;-91
2022/06/29 09:19:53;;;;;;;15.23;3.20;;;;;;;24.76;100.00;94212.66;4984653;28;20500;-93
2022/06/29 09:22:18;;;;;;;11.07;2.40;;;;;;;25.29;100.00;94212.94;4982512;28;20030;-95
2022/06/29 09:24:44;;;;;;;6.72;2.20;;;;;;;25.77;100.00;94210.38;4983100;28;20454;-95
2022/06/29 09:27:11;;;;;;;12.73;2.20;;;;;;;25.15;100.00;94211.63;4982814;28;20031;-92
2022/06/29 09:29:39;;;;;;;18.77;2.92;;;;;;;25.09;100.00;94213.84;4981895;28;20114;-93
2022/06/29 09:32:07;;;;;;;11.90;2.55;;;;;;;25.19;100.00;94220.47;4981752;28;20082;-93
2022/06/29 09:34:42;;;;;;;14.57;2.40;;;;;;;25.37;100.00;94219.91;4965834;28;20038;-95
2022/06/29 09:37:12;;;;;;;19.02;2.85;;;;;;;25.70;100.00;94215.69;4965539;28;20027;-93
2022/06/29 09:39:50;;;;;;;10.30;1.83;;;;;;;25.82;100.00;94218.13;4982202;28;20027;-95
2022/06/29 09:42:58;;;;;;;16.90;2.58;;;;;;;25.47;100.00;94211.22;4982619;28;20113;-94
2022/06/29 09:45:46;;;;;;;;;;;;;;;;;;;;;
2022/06/29 09:48:24;;;;;;;;;;;;;;;;;;;;;
2022/06/29 09:51:03;;;;;;;;;;;;;;;;;;;;;
2022/06/29 09:53:39;;;;;;;9.57;2.22;;;;;;;27.05;100.00;94215.56;4968722;28;20550;-94
2022/06/29 09:56:30;;;;;;;11.55;2.20;;;;;;;26.49;100.00;94218.28;4968843;28;20023;-95
2022/06/29 09:59:15;;;;;;;18.42;2.70;;;;;;;25.77;100.00;94218.44;4958069;28;20042;-94
2022/06/29 10:04:30;;;;;;;18.52;3.67;;;;;;;25.45;100.00;94204.66;4968492;28;20178;-91
2022/06/29 10:07:03;;;;;;;13.70;3.00;;;;;;;25.58;100.00;94208.66;4967210;28;20058;-95
2022/06/29 10:09:29;;;;;;;13.23;2.40;;;;;;;25.82;100.00;94203.91;4983486;28;20042;-93
2022/06/29 10:14:56;;;;;;;11.35;2.60;;;;;;;25.89;93.23;94197.84;4969311;28;20034;-94
2022/06/29 10:17:43;;;;;;;12.23;2.50;;;;;;;25.44;100.00;94203.91;4983833;28;20022;-93
2022/06/29 10:20:20;;;;;;;14.68;2.70;;;;;;;24.96;100.00;94199.13;4983492;28;20031;-93
2022/06/29 10:22:48;;;;;;;9.88;2.60;;;;;;;25.73;100.00;94200.75;4982049;28;20022;-93
2022/06/29 10:25:14;;;;;;;12.30;2.85;;;;;;;25.66;100.00;94202.25;4981647;28;20027;-92
2022/06/29 10:28:08;;;;;;;8.40;2.35;;;;;;;26.07;100.00;94203.38;4967607;28;20034;-93
2022/06/29 10:30:34;;;;;;;16.88;2.72;;;;;;;25.54;100.00;94194.44;4984163;28;20104;-91
2022/06/29 10:33:31;;;;;;;16.77;2.67;;;;;;;25.75;100.00;94201.16;4981294;28;20031;-91
2022/06/29 10:36:06;;;;;;;20.10;2.70;;;;;;;25.78;100.00;94198.50;4981775;28;20060;-95
2022/06/29 10:38:35;;;;;;;12.00;2.25;;;;;;;25.84;100.00;94196.28;4982066;28;20082;-92
2022/06/29 10:41:09;;;;;;;20.00;2.78;;;;;;;26.11;100.00;94196.13;4964931;28;20054;-93
2022/06/29 10:43:38;;;;;;;11.02;2.30;;;;;;;26.16;100.00;94203.06;4966038;28;20031;-93
2022/06/29 10:46:04;;;;;;;8.98;2.20;;;;;;;26.47;100.00;94198.31;4983977;28;20027;-94
2022/06/29 10:48:31;;;;;;;8.68;1.90;;;;;;;26.88;100.00;94197.41;4983819;28;20026;-91
2022/06/29 10:50:57;;;;;;;13.48;2.38;;;;;;;26.98;85.18;94198.66;4981167;28;20031;-93
2022/06/29 10:53:24;;;;;;;11.85;2.13;;;;;;;26.92;92.88;94198.97;4980948;28;20022;-91
2022/06/29 10:55:52;;;;;;;11.77;2.20;;;;;;;27.52;80.67;94206.91;4962851;28;20061;-93
2022/06/29 10:58:18;;;;;;;13.10;3.10;;;;;;;26.96;86.54;94204.38;4965130;28;20022;-94
2022/06/29 11:00:45;;;;;;;10.68;1.88;;;;;;;27.46;91.17;94203.81;4964789;28;20022;-92
2022/06/29 11:03:26;;;;;;;10.00;1.88;;;;;;;27.72;93.24;94199.28;4963308;28;20110;-94
2022/06/29 11:16:56;;;;;;;8.70;2.15;;;;;;;28.01;79.14;94191.25;4966920;28;20355;-93
2022/06/29 11:19:38;;;;;;;7.15;1.70;;;;;;;27.67;77.03;94186.19;4964205;28;20034;-94
2022/06/29 11:22:08;;;;;;;9.63;1.95;;;;;;;26.81;83.05;94190.06;4982832;28;20033;-94
2022/06/29 11:24:49;;;;;;;8.52;2.05;;;;;;;27.79;82.55;94188.50;4978639;28;20032;-92
2022/06/29 11:27:36;;;;;;;8.65;2.00;;;;;;;27.00;97.38;94185.59;4979493;28;20034;-93
2022/06/29 11:30:03;;;;;;;9.45;2.00;;;;;;;27.29;98.45;94186.44;4962406;28;20027;-93
2022/06/29 11:32:36;;;;;;;10.00;1.98;;;;;;;27.99;81.14;94182.78;4979006;28;20121;-93
2022/06/29 11:35:02;;;;;;;6.68;1.80;;;;;;;27.49;80.42;94194.97;4962751;28;20023;-94
2022/06/29 11:37:27;;;;;;;8.25;1.90;;;;;;;28.43;97.00;94178.16;4962422;28;20031;-94
2022/06/29 11:39:52;;;;;;;5.22;1.90;;;;;;;28.72;72.57;94182.72;4979426;28;20026;-94
2022/06/29 11:45:22;;;;;;;8.43;1.50;;;;;;;29.42;62.17;94179.44;4965893;28;20363;-91
2022/06/29 11:47:54;;;;;;;6.63;1.60;;;;;;;29.06;61.76;94172.25;4965213;28;20026;-94
2022/06/29 11:50:21;;;;;;;11.20;2.27;;;;;;;28.49;70.26;94186.63;4962719;28;20030;-93
2022/06/29 11:52:50;;;;;;;8.52;2.42;;;;;;;28.41;69.12;94185.09;4962762;28;20443;-94
2022/06/29 11:55:42;;;;;;;13.57;2.47;;;;;;;27.19;79.48;94189.91;4962538;28;20030;-93
2022/06/29 11:58:13;;;;;;;11.43;2.10;;;;;;;26.33;80.40;94185.56;4962560;28;20432;-90
2022/06/29 12:00:39;;;;;;;11.00;2.00;;;;;;;26.09;85.43;94195.72;4964180;28;20031;-92
2022/06/29 12:03:06;;;;;;;11.88;2.45;;;;;;;26.34;92.01;94190.56;4962898;28;20034;-93
2022/06/29 12:05:31;;;;;;;8.38;1.92;;;;;;;26.43;90.35;94186.78;4964807;28;20031;-92
2022/06/29 12:07:57;;;;;;;9.45;1.98;;;;;;;26.71;89.63;94193.47;4980741;28;20452;-94
2022/06/29 12:10:22;;;;;;;15.65;2.30;;;;;;;27.61;87.15;94193.09;4964344;28;20027;-93
2022/06/29 12:12:48;;;;;;;15.35;2.40;;;;;;;27.28;83.40;94194.91;4961556;28;20030;-93
2022/06/29 12:15:14;;;;;;;9.05;2.10;;;;;;;28.16;71.09;94186.59;4978715;28;20029;-94
2022/06/29 12:17:40;;;;;;;12.57;2.97;;;;;;;28.17;74.33;94182.03;4945828;28;20106;-91
2022/06/29 12:20:06;;;;;;;13.15;2.13;;;;;;;26.88;81.16;94195.50;4960972;28;20408;-89
2022/06/29 12:22:34;;;;;;;10.40;2.00;;;;;;;28.26;74.83;94187.78;4961182;28;20151;-89
2022/06/29 12:24:59;;;;;;;8.38;2.20;;;;;;;29.17;67.25;94188.38;4978375;28;20085;-93
2022/06/29 12:27:24;;;;;;;11.18;2.08;;;;;;;29.57;66.14;94192.84;4945040;28;20022;-90
2022/06/29 12:29:50;;;;;;;6.38;1.88;;;;;;;29.98;66.69;94194.13;4960805;28;20034;-92
2022/06/29 12:32:15;;;;;;;6.95;1.67;;;;;;;30.74;65.34;94188.09;4960978;28;20317;-87
2022/06/29 12:34:42;;;;;;;8.85;1.75;;;;;;;31.15;59.93;94192.66;4960927;28;20033;-89
2022/06/29 12:37:08;;;;;;;8.85;1.95;;;;;;;31.52;59.37;94189.53;4978568;28;20027;-88
2022/06/29 12:39:33;;;;;;;8.00;1.92;;;;;;;30.62;64.23;94194.75;4978268;28;20113;-88
2022/06/29 12:42:00;;;;;;;13.30;2.30;;;;;;;30.55;64.68;94190.16;4960656;28;20037;-90
2022/06/29 12:44:26;;;;;;;13.80;2.92;;;;;;;29.77;69.81;94193.88;4960450;28;20117;-89
2022/06/29 12:46:52;;;;;;;9.70;1.83;;;;;;;30.71;62.68;94192.38;4949411;29;20126;-90
2022/06/29 12:49:18;;;;;;;14.73;2.47;;;;;;;30.79;66.67;94190.34;4941559;29;20463;-91
2022/06/29 12:51:44;;;;;;;13.50;2.22;;;;;;;30.74;67.90;94190.81;4941802;29;20035;-89
2022/06/29 12:54:09;;;;;;;12.48;2.30;;;;;;;30.83;67.43;94196.47;4926006;29;20035;-89
2022/06/29 12:56:35;;;;;;;9.07;2.17;;;;;;;30.18;66.74;94184.31;4942164;29;20082;-90
2022/06/29 12:59:05;;;;;;;7.28;2.10;;;;;;;29.47;61.80;94187.09;4941502;29;20050;-89
2022/06/29 13:01:33;;;;;;;9.30;1.88;;;;;;;29.29;61.56;94191.81;4938914;28;20035;-90
2022/06/29 13:04:09;;;;;;;15.15;2.25;;;;;;;28.26;69.13;94193.16;4960715;28;20042;-90
2022/06/29 13:06:37;;;;;;;10.15;2.05;;;;;;;28.16;66.15;94186.59;4962039;28;20333;-90
2022/06/29 13:09:07;;;;;;;7.65;1.90;;;;;;;28.40;70.84;94178.94;4960535;28;20054;-88
2022/06/29 13:11:34;;;;;;;10.15;2.22;;;;;;;28.20;69.70;94187.41;4945707;28;20038;-92
2022/06/29 13:14:02;;;;;;;11.60;2.53;;;;;;;28.50;71.50;94183.53;4960261;28;20054;-90
2022/06/29 13:16:27;;;;;;;11.95;2.10;;;;;;;29.28;65.30;94187.56;4977883;28;20097;-91
2022/06/29 13:18:55;;;;;;;10.68;2.28;;;;;;;28.93;70.81;94188.06;4944706;28;20062;-89
2022/06/29 13:21:38;;;;;;;11.38;1.90;;;;;;;29.43;58.39;94185.56;4961113;28;20038;-90
2022/06/29 13:24:12;;;;;;;11.07;2.05;;;;;;;29.24;60.05;94184.09;4961997;28;20031;-91
2022/06/29 13:26:40;;;;;;;12.75;2.17;;;;;;;29.33;69.69;94181.75;4962324;28;20027;-90
2022/06/29 13:29:23;;;;;;;8.82;2.22;;;;;;;29.77;66.63;94183.06;4944795;28;20042;-93
2022/06/29 13:31:49;;;;;;;11.27;2.75;;;;;;;27.77;64.20;94184.69;4942288;29;20115;-90
2022/06/29 13:34:14;;;;;;;6.35;1.77;;;;;;;28.16;59.45;94186.59;4957820;29;20098;-89
2022/06/29 13:36:45;;;;;;;15.30;1.85;;;;;;;28.02;65.59;94190.06;4959104;29;20035;-92
2022/06/29 13:39:21;;;;;;;11.50;2.28;;;;;;;27.56;68.85;94183.47;4941526;29;20343;-90
2022/06/29 13:41:47;;;;;;;8.43;2.13;;;;;;;28.18;68.02;94187.00;4942636;29;20031;-88
2022/06/29 13:44:37;;;;;;;;;;;;;;;;;;;;;
2022/06/29 13:47:05;;;;;;;11.90;2.17;;;;;;;28.28;66.84;94182.00;4944157;29;20037;-92
2022/06/29 13:49:31;;;;;;;12.73;2.50;;;;;;;28.95;67.95;94187.69;4929378;29;20118;-92
2022/06/29 13:51:57;;;;;;;14.32;2.00;;;;;;;29.09;60.45;94186.09;4944485;29;20109;-86
2022/06/29 13:54:46;;;;;;;;;;;;;;;;;;;;;
2022/06/29 13:57:22;;;;;;;;;;;;;;;;;;;;;
2022/06/29 13:59:57;;;;;;;13.70;2.40;;;;;;;29.52;65.90;94179.75;4945802;29;20021;-88
2022/06/29 14:02:33;;;;;;;;;;;;;;;;;;;;;
2022/06/29 14:04:59;;;;;;;15.63;3.20;;;;;;;29.90;61.02;94177.19;4946063;29;20031;-88
2022/06/29 14:07:27;;;;;;;15.05;3.35;;;;;;;30.50;56.34;94181.75;4928088;29;20142;-90
2022/06/29 14:09:56;;;;;;;10.00;2.17;;;;;;;30.19;54.87;94179.69;4928405;29;20130;-91
2022/06/29 14:12:21;;;;;;;16.65;2.78;;;;;;;31.60;52.09;94170.06;4928970;29;20035;-90
2022/06/29 14:14:52;;;;;;;9.93;2.40;;;;;;;30.89;51.41;94175.97;4928850;29;20027;-87